sensor_id;sensor_type;location;lat;lon;timestamp;temperature;humidity
1179;DHT22;578;48.408;10.004;2022-08-01T00:00:37;17.20;97.70
1179;DHT22;578;48.408;10.004;2022-08-01T00:03:04;17.20;97.30
1179;DHT22;578;48.408;10.004;2022-08-01T00:05:32;17.20;97.10
1179;DHT22;578;48.408;10.004;2022-08-01T00:07:59;17.30;97.70
1179;DHT22;578;48.408;10.004;2022-08-01T00:10:26;17.20;98.00
1179;DHT22;578;48.408;10.004;2022-08-01T00:12:53;17.20;99.60
1179;DHT22;578;48.408;10.004;2022-08-01T00:15:19;17.10;99.90
1179;DHT22;578;48.408;10.004;2022-08-01T00:17:46;17.10;99.20
1179;DHT22;578;48.408;10.004;2022-08-01T00:20:13;17.00;99.90
1179;DHT22;578;48.408;10.004;2022-08-01T00:22:42;16.90;99.90
1179;DHT22;578;48.408;10.004;2022-08-01T00:25:09;16.90;99.90
1179;DHT22;578;48.408;10.004;2022-08-01T00:27:36;16.80;99.90
1179;DHT22;578;48.408;10.004;2022-08-01T00:30:03;16.90;99.90
1179;DHT22;578;48.408;10.004;2022-08-01T00:32:30;16.90;99.90
1179;DHT22;578;48.408;10.004;2022-08-01T00:34:57;17.00;99.90
1179;DHT22;578;48.408;10.004;2022-08-01T00:37:23;17.00;99.90
1179;DHT22;578;48.408;10.004;2022-08-01T00:39:51;17.00;99.90
1179;DHT22;578;48.408;10.004;2022-08-01T00:42:18;17.10;99.90
1179;DHT22;578;48.408;10.004;2022-08-01T00:44:45;17.40;99.90
1179;DHT22;578;48.408;10.004;2022-08-01T00:47:12;17.40;98.30
1179;DHT22;578;48.408;10.004;2022-08-01T00:49:38;17.40;97.40
1179;DHT22;578;48.408;10.004;2022-08-01T00:52:06;17.40;96.70
1179;DHT22;578;48.408;10.004;2022-08-01T00:54:32;17.70;94.30
1179;DHT22;578;48.408;10.004;2022-08-01T00:57:01;17.60;96.20
1179;DHT22;578;48.408;10.004;2022-08-01T00:59:28;17.50;94.90
1179;DHT22;578;48.408;10.004;2022-08-01T01:01:55;17.50;94.40
1179;DHT22;578;48.408;10.004;2022-08-01T01:04:22;17.60;94.60
1179;DHT22;578;48.408;10.004;2022-08-01T01:06:56;17.60;93.40
1179;DHT22;578;48.408;10.004;2022-08-01T01:09:30;17.60;93.40
1179;DHT22;578;48.408;10.004;2022-08-01T01:12:11;17.80;91.50
1179;DHT22;578;48.408;10.004;2022-08-01T01:14:41;17.90;92.90
1179;DHT22;578;48.408;10.004;2022-08-01T01:17:12;17.90;91.00
1179;DHT22;578;48.408;10.004;2022-08-01T01:19:45;18.00;90.30
1179;DHT22;578;48.408;10.004;2022-08-01T01:22:22;18.40;88.90
1179;DHT22;578;48.408;10.004;2022-08-01T01:25:02;18.70;85.30
1179;DHT22;578;48.408;10.004;2022-08-01T01:27:39;18.50;88.00
1179;DHT22;578;48.408;10.004;2022-08-01T01:30:10;18.70;88.00
1179;DHT22;578;48.408;10.004;2022-08-01T01:32:40;18.40;87.20
1179;DHT22;578;48.408;10.004;2022-08-01T01:35:21;18.30;87.40
1179;DHT22;578;48.408;10.004;2022-08-01T01:37:52;18.30;86.80
1179;DHT22;578;48.408;10.004;2022-08-01T01:40:20;18.20;90.40
1179;DHT22;578;48.408;10.004;2022-08-01T01:42:48;18.30;90.30
1179;DHT22;578;48.408;10.004;2022-08-01T01:45:18;18.40;88.00
1179;DHT22;578;48.408;10.004;2022-08-01T01:47:45;18.50;84.60
1179;DHT22;578;48.408;10.004;2022-08-01T01:50:12;18.40;86.80
1179;DHT22;578;48.408;10.004;2022-08-01T01:52:41;18.40;85.50
1179;DHT22;578;48.408;10.004;2022-08-01T01:55:09;18.50;86.10
1179;DHT22;578;48.408;10.004;2022-08-01T01:57:38;18.40;86.50
1179;DHT22;578;48.408;10.004;2022-08-01T02:00:07;18.30;86.40
1179;DHT22;578;48.408;10.004;2022-08-01T02:02:36;18.40;84.80
1179;DHT22;578;48.408;10.004;2022-08-01T02:05:04;18.30;85.60
1179;DHT22;578;48.408;10.004;2022-08-01T02:07:32;18.40;84.30
1179;DHT22;578;48.408;10.004;2022-08-01T02:10:02;18.20;87.30
1179;DHT22;578;48.408;10.004;2022-08-01T02:12:30;18.20;87.90
1179;DHT22;578;48.408;10.004;2022-08-01T02:14:58;18.00;89.20
1179;DHT22;578;48.408;10.004;2022-08-01T02:17:26;17.70;90.80
1179;DHT22;578;48.408;10.004;2022-08-01T02:19:55;17.60;91.90
1179;DHT22;578;48.408;10.004;2022-08-01T02:22:27;17.40;92.60
1179;DHT22;578;48.408;10.004;2022-08-01T02:24:59;17.40;93.30
1179;DHT22;578;48.408;10.004;2022-08-01T02:27:30;17.20;95.50
1179;DHT22;578;48.408;10.004;2022-08-01T02:30:01;17.10;94.40
1179;DHT22;578;48.408;10.004;2022-08-01T02:32:32;17.20;94.20
1179;DHT22;578;48.408;10.004;2022-08-01T02:35:05;17.10;95.90
1179;DHT22;578;48.408;10.004;2022-08-01T02:37:34;17.00;94.80
1179;DHT22;578;48.408;10.004;2022-08-01T02:40:04;16.90;96.20
1179;DHT22;578;48.408;10.004;2022-08-01T02:42:34;17.00;94.40
1179;DHT22;578;48.408;10.004;2022-08-01T02:45:05;17.00;94.80
1179;DHT22;578;48.408;10.004;2022-08-01T02:47:34;16.80;96.50
1179;DHT22;578;48.408;10.004;2022-08-01T02:50:05;16.80;95.10
1179;DHT22;578;48.408;10.004;2022-08-01T02:52:34;16.80;96.90
1179;DHT22;578;48.408;10.004;2022-08-01T02:55:01;16.70;99.90
1179;DHT22;578;48.408;10.004;2022-08-01T02:57:29;16.60;98.30
1179;DHT22;578;48.408;10.004;2022-08-01T02:59:58;16.40;98.20
1179;DHT22;578;48.408;10.004;2022-08-01T03:02:26;16.50;99.50
1179;DHT22;578;48.408;10.004;2022-08-01T03:07:21;16.40;99.90
1179;DHT22;578;48.408;10.004;2022-08-01T03:09:49;16.40;99.40
1179;DHT22;578;48.408;10.004;2022-08-01T03:12:20;16.40;99.90
1179;DHT22;578;48.408;10.004;2022-08-01T03:14:51;16.20;99.90
1179;DHT22;578;48.408;10.004;2022-08-01T03:17:22;16.20;99.90
1179;DHT22;578;48.408;10.004;2022-08-01T03:19:51;16.20;99.90
1179;DHT22;578;48.408;10.004;2022-08-01T05:12:26;16.10;99.90
1179;DHT22;578;48.408;10.004;2022-08-01T05:14:53;16.40;99.90
1179;DHT22;578;48.408;10.004;2022-08-01T05:17:20;16.40;99.90
1179;DHT22;578;48.408;10.004;2022-08-01T05:19:46;16.40;99.90
1179;DHT22;578;48.408;10.004;2022-08-01T05:22:13;16.40;99.90
1179;DHT22;578;48.408;10.004;2022-08-01T05:24:40;16.50;99.90
1179;DHT22;578;48.408;10.004;2022-08-01T05:27:08;16.60;99.90
1179;DHT22;578;48.408;10.004;2022-08-01T05:29:36;16.80;99.90
1179;DHT22;578;48.408;10.004;2022-08-01T05:32:03;16.80;99.90
1179;DHT22;578;48.408;10.004;2022-08-01T05:34:30;16.90;99.90
1179;DHT22;578;48.408;10.004;2022-08-01T05:36:56;17.20;99.90
1179;DHT22;578;48.408;10.004;2022-08-01T05:39:23;17.20;99.90
1179;DHT22;578;48.408;10.004;2022-08-01T05:41:50;17.30;99.90
1179;DHT22;578;48.408;10.004;2022-08-01T05:44:16;17.50;99.90
1179;DHT22;578;48.408;10.004;2022-08-01T05:46:44;17.80;99.90
1179;DHT22;578;48.408;10.004;2022-08-01T05:49:11;18.10;99.90
1179;DHT22;578;48.408;10.004;2022-08-01T05:51:38;18.90;96.70
1179;DHT22;578;48.408;10.004;2022-08-01T05:54:05;19.50;93.50
1179;DHT22;578;48.408;10.004;2022-08-01T05:56:31;20.30;91.90
1179;DHT22;578;48.408;10.004;2022-08-01T05:58:58;20.80;89.50
1179;DHT22;578;48.408;10.004;2022-08-01T06:01:25;21.30;85.00
1179;DHT22;578;48.408;10.004;2022-08-01T06:03:53;21.90;80.40
1179;DHT22;578;48.408;10.004;2022-08-01T06:06:20;22.50;79.70
1179;DHT22;578;48.408;10.004;2022-08-01T06:08:47;22.90;74.00
1179;DHT22;578;48.408;10.004;2022-08-01T06:11:14;23.50;72.10
1179;DHT22;578;48.408;10.004;2022-08-01T06:13:41;24.00;68.90
1179;DHT22;578;48.408;10.004;2022-08-01T06:16:07;24.90;70.60
1179;DHT22;578;48.408;10.004;2022-08-01T06:18:34;25.70;67.40
1179;DHT22;578;48.408;10.004;2022-08-01T06:21:02;26.60;65.50
1179;DHT22;578;48.408;10.004;2022-08-01T06:23:29;26.60;64.30
1179;DHT22;578;48.408;10.004;2022-08-01T06:25:56;26.90;61.10
1179;DHT22;578;48.408;10.004;2022-08-01T06:28:23;27.00;65.60
1179;DHT22;578;48.408;10.004;2022-08-01T06:30:50;27.70;61.60
1179;DHT22;578;48.408;10.004;2022-08-01T06:33:17;28.00;61.90
1179;DHT22;578;48.408;10.004;2022-08-01T06:35:43;27.50;59.20
1179;DHT22;578;48.408;10.004;2022-08-01T06:38:11;27.40;59.20
1179;DHT22;578;48.408;10.004;2022-08-01T06:40:38;27.30;60.80
1179;DHT22;578;48.408;10.004;2022-08-01T06:43:05;26.60;59.30
1179;DHT22;578;48.408;10.004;2022-08-01T06:45:31;26.60;59.10
1179;DHT22;578;48.408;10.004;2022-08-01T06:47:58;26.60;63.00
1179;DHT22;578;48.408;10.004;2022-08-01T06:50:25;26.50;60.30
1179;DHT22;578;48.408;10.004;2022-08-01T06:52:51;26.30;60.00
1179;DHT22;578;48.408;10.004;2022-08-01T06:55:20;26.30;60.30
1179;DHT22;578;48.408;10.004;2022-08-01T06:57:47;26.30;60.60
1179;DHT22;578;48.408;10.004;2022-08-01T07:00:15;26.70;60.50
1179;DHT22;578;48.408;10.004;2022-08-01T07:02:44;26.80;57.50
1179;DHT22;578;48.408;10.004;2022-08-01T07:05:10;25.90;59.70
1179;DHT22;578;48.408;10.004;2022-08-01T07:07:37;26.40;60.90
1179;DHT22;578;48.408;10.004;2022-08-01T07:10:05;26.90;61.60
1179;DHT22;578;48.408;10.004;2022-08-01T07:12:35;27.10;59.30
1179;DHT22;578;48.408;10.004;2022-08-01T07:15:04;27.10;59.30
1179;DHT22;578;48.408;10.004;2022-08-01T07:17:31;26.70;59.20
1179;DHT22;578;48.408;10.004;2022-08-01T07:19:57;26.60;58.50
1179;DHT22;578;48.408;10.004;2022-08-01T07:22:24;26.70;57.90
1179;DHT22;578;48.408;10.004;2022-08-01T07:24:51;26.80;57.60
1179;DHT22;578;48.408;10.004;2022-08-01T07:27:17;26.80;61.00
1179;DHT22;578;48.408;10.004;2022-08-01T07:29:45;26.90;60.60
1179;DHT22;578;48.408;10.004;2022-08-01T07:32:12;27.40;57.60
1179;DHT22;578;48.408;10.004;2022-08-01T07:34:39;26.90;55.50
1179;DHT22;578;48.408;10.004;2022-08-01T07:37:06;27.40;56.90
1179;DHT22;578;48.408;10.004;2022-08-01T07:39:32;27.30;57.60
1179;DHT22;578;48.408;10.004;2022-08-01T07:41:59;27.20;56.10
1179;DHT22;578;48.408;10.004;2022-08-01T07:44:26;27.80;56.50
1179;DHT22;578;48.408;10.004;2022-08-01T07:46:53;27.30;55.50
1179;DHT22;578;48.408;10.004;2022-08-01T07:49:20;27.40;56.50
1179;DHT22;578;48.408;10.004;2022-08-01T07:51:47;27.60;53.60
1179;DHT22;578;48.408;10.004;2022-08-01T07:54:14;27.60;54.30
1179;DHT22;578;48.408;10.004;2022-08-01T07:56:40;27.70;54.70
1179;DHT22;578;48.408;10.004;2022-08-01T07:59:07;27.70;53.00
1179;DHT22;578;48.408;10.004;2022-08-01T08:01:34;27.80;54.30
1179;DHT22;578;48.408;10.004;2022-08-01T08:04:02;28.10;55.10
1179;DHT22;578;48.408;10.004;2022-08-01T08:06:29;28.30;53.90
1179;DHT22;578;48.408;10.004;2022-08-01T08:08:55;28.40;54.30
1179;DHT22;578;48.408;10.004;2022-08-01T08:11:22;28.50;54.80
1179;DHT22;578;48.408;10.004;2022-08-01T08:13:49;27.80;54.70
1179;DHT22;578;48.408;10.004;2022-08-01T08:16:15;28.00;53.10
1179;DHT22;578;48.408;10.004;2022-08-01T08:18:42;28.50;53.00
1179;DHT22;578;48.408;10.004;2022-08-01T08:21:10;28.50;54.20
1179;DHT22;578;48.408;10.004;2022-08-01T08:23:37;28.50;52.80
1179;DHT22;578;48.408;10.004;2022-08-01T08:26:21;29.10;52.70
1179;DHT22;578;48.408;10.004;2022-08-01T08:28:49;29.00;54.70
1179;DHT22;578;48.408;10.004;2022-08-01T08:31:15;28.90;52.70
1179;DHT22;578;48.408;10.004;2022-08-01T08:33:42;29.50;51.90
1179;DHT22;578;48.408;10.004;2022-08-01T08:36:10;29.60;51.20
1179;DHT22;578;48.408;10.004;2022-08-01T08:38:37;29.50;52.20
1179;DHT22;578;48.408;10.004;2022-08-01T08:41:04;28.50;53.00
1179;DHT22;578;48.408;10.004;2022-08-01T08:43:31;28.50;51.30
1179;DHT22;578;48.408;10.004;2022-08-01T08:45:58;28.60;53.40
1179;DHT22;578;48.408;10.004;2022-08-01T08:48:25;28.70;53.40
1179;DHT22;578;48.408;10.004;2022-08-01T08:50:52;28.90;51.90
1179;DHT22;578;48.408;10.004;2022-08-01T08:53:20;29.00;52.80
1179;DHT22;578;48.408;10.004;2022-08-01T08:55:48;28.50;55.60
1179;DHT22;578;48.408;10.004;2022-08-01T08:58:15;29.80;51.00
1179;DHT22;578;48.408;10.004;2022-08-01T09:00:43;29.50;48.90
1179;DHT22;578;48.408;10.004;2022-08-01T09:03:09;30.00;51.50
1179;DHT22;578;48.408;10.004;2022-08-01T09:05:36;30.30;49.80
1179;DHT22;578;48.408;10.004;2022-08-01T09:08:06;30.20;50.40
1179;DHT22;578;48.408;10.004;2022-08-01T09:10:34;30.30;49.90
1179;DHT22;578;48.408;10.004;2022-08-01T09:13:02;30.40;49.30
1179;DHT22;578;48.408;10.004;2022-08-01T09:15:38;30.20;49.20
1179;DHT22;578;48.408;10.004;2022-08-01T09:18:04;30.30;49.50
1179;DHT22;578;48.408;10.004;2022-08-01T09:20:31;29.80;50.20
1179;DHT22;578;48.408;10.004;2022-08-01T09:23:00;30.10;49.00
1179;DHT22;578;48.408;10.004;2022-08-01T09:25:26;30.60;51.60
1179;DHT22;578;48.408;10.004;2022-08-01T09:28:04;30.70;50.70
1179;DHT22;578;48.408;10.004;2022-08-01T09:30:36;29.70;49.90
1179;DHT22;578;48.408;10.004;2022-08-01T09:33:04;29.10;51.00
1179;DHT22;578;48.408;10.004;2022-08-01T09:35:32;28.70;50.00
1179;DHT22;578;48.408;10.004;2022-08-01T09:38:16;29.10;51.40
1179;DHT22;578;48.408;10.004;2022-08-01T09:40:48;29.10;50.70
1179;DHT22;578;48.408;10.004;2022-08-01T09:43:16;30.00;48.50
1179;DHT22;578;48.408;10.004;2022-08-01T09:45:43;30.30;47.80
1179;DHT22;578;48.408;10.004;2022-08-01T09:48:10;30.10;48.50
1179;DHT22;578;48.408;10.004;2022-08-01T09:50:42;30.00;47.70
1179;DHT22;578;48.408;10.004;2022-08-01T09:53:09;30.90;45.50
1179;DHT22;578;48.408;10.004;2022-08-01T09:55:37;30.70;49.20
1179;DHT22;578;48.408;10.004;2022-08-01T09:58:04;31.00;45.80
1179;DHT22;578;48.408;10.004;2022-08-01T10:00:33;30.70;46.10
1179;DHT22;578;48.408;10.004;2022-08-01T10:03:00;30.80;47.20
1179;DHT22;578;48.408;10.004;2022-08-01T10:05:44;30.80;47.20
1179;DHT22;578;48.408;10.004;2022-08-01T10:08:10;31.10;45.10
1179;DHT22;578;48.408;10.004;2022-08-01T10:10:38;30.60;45.90
1179;DHT22;578;48.408;10.004;2022-08-01T10:13:04;29.90;47.90
1179;DHT22;578;48.408;10.004;2022-08-01T10:15:33;30.90;48.20
1179;DHT22;578;48.408;10.004;2022-08-01T10:18:04;30.70;46.60
1179;DHT22;578;48.408;10.004;2022-08-01T10:20:32;30.70;47.90
1179;DHT22;578;48.408;10.004;2022-08-01T10:23:02;30.90;47.60
1179;DHT22;578;48.408;10.004;2022-08-01T10:25:33;31.10;46.10
1179;DHT22;578;48.408;10.004;2022-08-01T10:28:02;30.90;48.50
1179;DHT22;578;48.408;10.004;2022-08-01T10:30:34;31.20;49.70
1179;DHT22;578;48.408;10.004;2022-08-01T10:33:01;29.30;51.40
1179;DHT22;578;48.408;10.004;2022-08-01T10:35:28;28.30;52.40
1179;DHT22;578;48.408;10.004;2022-08-01T10:37:55;28.10;52.60
1179;DHT22;578;48.408;10.004;2022-08-01T10:40:23;29.40;52.90
1179;DHT22;578;48.408;10.004;2022-08-01T10:42:51;30.00;52.50
1179;DHT22;578;48.408;10.004;2022-08-01T10:45:19;28.60;51.00
1179;DHT22;578;48.408;10.004;2022-08-01T10:47:51;28.90;52.80
1179;DHT22;578;48.408;10.004;2022-08-01T10:50:24;29.30;52.80
1179;DHT22;578;48.408;10.004;2022-08-01T10:53:06;29.70;49.00
1179;DHT22;578;48.408;10.004;2022-08-01T10:55:45;28.20;51.40
1179;DHT22;578;48.408;10.004;2022-08-01T10:58:12;27.60;52.90
1179;DHT22;578;48.408;10.004;2022-08-01T11:00:39;27.90;51.60
1179;DHT22;578;48.408;10.004;2022-08-01T11:03:07;29.00;51.70
1179;DHT22;578;48.408;10.004;2022-08-01T11:05:34;29.30;48.90
1179;DHT22;578;48.408;10.004;2022-08-01T11:08:06;29.00;48.80
1179;DHT22;578;48.408;10.004;2022-08-01T11:10:37;29.40;49.10
1179;DHT22;578;48.408;10.004;2022-08-01T11:13:05;28.60;51.60
1179;DHT22;578;48.408;10.004;2022-08-01T11:15:33;28.70;49.30
1179;DHT22;578;48.408;10.004;2022-08-01T11:18:02;28.70;55.80
1179;DHT22;578;48.408;10.004;2022-08-01T11:20:32;29.30;51.00
1179;DHT22;578;48.408;10.004;2022-08-01T11:23:23;30.20;46.90
1179;DHT22;578;48.408;10.004;2022-08-01T11:26:13;30.50;46.00
1179;DHT22;578;48.408;10.004;2022-08-01T11:28:41;29.80;46.90
1179;DHT22;578;48.408;10.004;2022-08-01T11:31:28;29.20;48.80
1179;DHT22;578;48.408;10.004;2022-08-01T11:33:55;28.50;50.40
1179;DHT22;578;48.408;10.004;2022-08-01T11:36:23;27.90;49.70
1179;DHT22;578;48.408;10.004;2022-08-01T11:39:13;27.50;52.00
1179;DHT22;578;48.408;10.004;2022-08-01T11:41:41;27.60;52.10
1179;DHT22;578;48.408;10.004;2022-08-01T11:44:09;27.80;52.10
1179;DHT22;578;48.408;10.004;2022-08-01T11:47:03;27.10;54.60
1179;DHT22;578;48.408;10.004;2022-08-01T11:49:47;27.20;52.50
1179;DHT22;578;48.408;10.004;2022-08-01T11:52:24;26.80;57.20
1179;DHT22;578;48.408;10.004;2022-08-01T11:54:53;27.10;54.00
1179;DHT22;578;48.408;10.004;2022-08-01T11:57:21;27.10;56.30
1179;DHT22;578;48.408;10.004;2022-08-01T11:59:49;26.60;56.60
1179;DHT22;578;48.408;10.004;2022-08-01T12:02:18;26.50;57.60
1179;DHT22;578;48.408;10.004;2022-08-01T12:04:50;26.30;52.90
1179;DHT22;578;48.408;10.004;2022-08-01T12:07:18;25.70;59.50
1179;DHT22;578;48.408;10.004;2022-08-01T12:09:46;25.90;56.60
1179;DHT22;578;48.408;10.004;2022-08-01T12:12:17;25.90;58.90
1179;DHT22;578;48.408;10.004;2022-08-01T12:14:45;25.70;57.50
1179;DHT22;578;48.408;10.004;2022-08-01T12:17:12;25.50;59.30
1179;DHT22;578;48.408;10.004;2022-08-01T12:19:40;24.90;62.70
1179;DHT22;578;48.408;10.004;2022-08-01T12:22:11;24.70;62.70
1179;DHT22;578;48.408;10.004;2022-08-01T12:24:40;24.60;63.30
1179;DHT22;578;48.408;10.004;2022-08-01T12:27:09;24.50;64.90
1179;DHT22;578;48.408;10.004;2022-08-01T12:29:39;24.70;64.20
1179;DHT22;578;48.408;10.004;2022-08-01T12:32:21;24.60;66.10
1179;DHT22;578;48.408;10.004;2022-08-01T12:34:48;24.50;66.30
1179;DHT22;578;48.408;10.004;2022-08-01T12:37:16;24.40;67.30
1179;DHT22;578;48.408;10.004;2022-08-01T12:39:44;24.50;66.80
1179;DHT22;578;48.408;10.004;2022-08-01T12:42:13;24.40;69.90
1179;DHT22;578;48.408;10.004;2022-08-01T12:44:42;24.40;69.40
1179;DHT22;578;48.408;10.004;2022-08-01T12:47:11;24.40;69.20
1179;DHT22;578;48.408;10.004;2022-08-01T12:49:38;24.70;64.20
1179;DHT22;578;48.408;10.004;2022-08-01T12:52:07;24.80;66.90
1179;DHT22;578;48.408;10.004;2022-08-01T12:55:01;24.90;69.70
1179;DHT22;578;48.408;10.004;2022-08-01T12:57:29;25.00;65.80
1179;DHT22;578;48.408;10.004;2022-08-01T13:00:12;25.00;66.80
1179;DHT22;578;48.408;10.004;2022-08-01T13:02:40;25.10;62.80
1179;DHT22;578;48.408;10.004;2022-08-01T13:05:07;25.30;62.20
1179;DHT22;578;48.408;10.004;2022-08-01T13:07:40;25.30;64.60
1179;DHT22;578;48.408;10.004;2022-08-01T13:10:08;25.30;65.40
1179;DHT22;578;48.408;10.004;2022-08-01T13:12:37;25.30;65.00
1179;DHT22;578;48.408;10.004;2022-08-01T13:15:25;25.10;65.00
1179;DHT22;578;48.408;10.004;2022-08-01T13:17:53;25.20;65.40
1179;DHT22;578;48.408;10.004;2022-08-01T13:20:31;25.20;65.20
1179;DHT22;578;48.408;10.004;2022-08-01T13:23:10;25.20;66.00
1179;DHT22;578;48.408;10.004;2022-08-01T13:25:50;25.10;65.10
1179;DHT22;578;48.408;10.004;2022-08-01T13:28:20;25.10;66.80
1179;DHT22;578;48.408;10.004;2022-08-01T13:31:05;25.20;66.50
1179;DHT22;578;48.408;10.004;2022-08-01T13:33:43;25.20;68.90
1179;DHT22;578;48.408;10.004;2022-08-01T13:36:10;25.30;68.20
1179;DHT22;578;48.408;10.004;2022-08-01T13:38:37;25.30;72.50
1179;DHT22;578;48.408;10.004;2022-08-01T13:41:21;25.60;68.30
1179;DHT22;578;48.408;10.004;2022-08-01T13:43:49;25.30;66.90
1179;DHT22;578;48.408;10.004;2022-08-01T13:46:16;25.30;66.80
1179;DHT22;578;48.408;10.004;2022-08-01T13:48:43;25.40;65.00
1179;DHT22;578;48.408;10.004;2022-08-01T13:51:10;25.50;65.50
1179;DHT22;578;48.408;10.004;2022-08-01T13:53:37;25.50;66.10
1179;DHT22;578;48.408;10.004;2022-08-01T13:56:04;25.50;65.30
1179;DHT22;578;48.408;10.004;2022-08-01T13:58:30;25.50;66.70
1179;DHT22;578;48.408;10.004;2022-08-01T14:00:58;25.70;68.00
1179;DHT22;578;48.408;10.004;2022-08-01T14:03:25;25.80;70.00
1179;DHT22;578;48.408;10.004;2022-08-01T14:05:52;25.90;69.90
1179;DHT22;578;48.408;10.004;2022-08-01T14:08:19;25.70;69.30
1179;DHT22;578;48.408;10.004;2022-08-01T14:10:45;26.00;69.70
1179;DHT22;578;48.408;10.004;2022-08-01T14:13:12;26.20;66.40
1179;DHT22;578;48.408;10.004;2022-08-01T14:15:39;26.50;66.80
1179;DHT22;578;48.408;10.004;2022-08-01T14:18:08;26.30;64.70
1179;DHT22;578;48.408;10.004;2022-08-01T14:20:35;26.10;60.50
1179;DHT22;578;48.408;10.004;2022-08-01T14:23:03;26.50;63.20
1179;DHT22;578;48.408;10.004;2022-08-01T14:25:30;26.60;60.70
1179;DHT22;578;48.408;10.004;2022-08-01T14:27:56;26.50;56.90
1179;DHT22;578;48.408;10.004;2022-08-01T14:30:23;26.10;58.40
1179;DHT22;578;48.408;10.004;2022-08-01T14:32:50;26.30;58.70
1179;DHT22;578;48.408;10.004;2022-08-01T14:35:18;26.20;55.90
1179;DHT22;578;48.408;10.004;2022-08-01T14:37:44;26.30;57.00
1179;DHT22;578;48.408;10.004;2022-08-01T14:40:11;26.60;60.70
1179;DHT22;578;48.408;10.004;2022-08-01T14:42:38;26.70;61.00
1179;DHT22;578;48.408;10.004;2022-08-01T14:45:07;26.80;60.20
1179;DHT22;578;48.408;10.004;2022-08-01T14:47:35;26.90;60.60
1179;DHT22;578;48.408;10.004;2022-08-01T14:50:03;26.30;60.20
1179;DHT22;578;48.408;10.004;2022-08-01T14:52:32;26.20;58.20
1179;DHT22;578;48.408;10.004;2022-08-01T14:54:59;26.30;57.80
1179;DHT22;578;48.408;10.004;2022-08-01T14:57:26;26.70;59.60
1179;DHT22;578;48.408;10.004;2022-08-01T14:59:53;27.00;57.50
1179;DHT22;578;48.408;10.004;2022-08-01T15:02:20;26.60;57.60
1179;DHT22;578;48.408;10.004;2022-08-01T15:04:47;26.30;60.00
1179;DHT22;578;48.408;10.004;2022-08-01T15:07:15;26.20;57.50
1179;DHT22;578;48.408;10.004;2022-08-01T15:09:44;26.20;58.60
1179;DHT22;578;48.408;10.004;2022-08-01T15:12:11;26.10;57.20
1179;DHT22;578;48.408;10.004;2022-08-01T15:14:38;26.20;57.70
1179;DHT22;578;48.408;10.004;2022-08-01T15:17:14;25.90;63.40
1179;DHT22;578;48.408;10.004;2022-08-01T15:19:41;25.40;67.70
1179;DHT22;578;48.408;10.004;2022-08-01T15:22:07;25.40;60.30
1179;DHT22;578;48.408;10.004;2022-08-01T15:24:34;25.70;57.00
1179;DHT22;578;48.408;10.004;2022-08-01T15:27:02;25.90;56.30
1179;DHT22;578;48.408;10.004;2022-08-01T15:29:29;26.00;56.20
1179;DHT22;578;48.408;10.004;2022-08-01T15:31:57;25.80;62.00
1179;DHT22;578;48.408;10.004;2022-08-01T15:34:23;25.50;62.30
1179;DHT22;578;48.408;10.004;2022-08-01T15:36:50;25.60;59.40
1179;DHT22;578;48.408;10.004;2022-08-01T15:39:17;25.70;58.20
1179;DHT22;578;48.408;10.004;2022-08-01T15:41:44;25.70;58.80
1179;DHT22;578;48.408;10.004;2022-08-01T15:44:13;25.60;59.70
1179;DHT22;578;48.408;10.004;2022-08-01T15:46:40;25.40;58.60
1179;DHT22;578;48.408;10.004;2022-08-01T15:49:07;25.40;59.20
1179;DHT22;578;48.408;10.004;2022-08-01T15:51:33;25.20;60.30
1179;DHT22;578;48.408;10.004;2022-08-01T15:54:00;25.10;61.40
1179;DHT22;578;48.408;10.004;2022-08-01T15:56:28;24.80;62.70
1179;DHT22;578;48.408;10.004;2022-08-01T15:58:55;24.40;66.30
1179;DHT22;578;48.408;10.004;2022-08-01T16:01:23;23.70;77.30
1179;DHT22;578;48.408;10.004;2022-08-01T16:03:51;22.80;89.80
1179;DHT22;578;48.408;10.004;2022-08-01T16:06:18;22.10;94.00
1179;DHT22;578;48.408;10.004;2022-08-01T16:08:45;21.80;97.50
1179;DHT22;578;48.408;10.004;2022-08-01T16:11:12;21.60;98.50
1179;DHT22;578;48.408;10.004;2022-08-01T16:13:38;21.60;97.80
1179;DHT22;578;48.408;10.004;2022-08-01T16:16:07;21.50;99.90
1179;DHT22;578;48.408;10.004;2022-08-01T16:18:35;21.50;99.90
1179;DHT22;578;48.408;10.004;2022-08-01T16:21:02;21.60;99.90
1179;DHT22;578;48.408;10.004;2022-08-01T16:23:28;21.70;99.90
1179;DHT22;578;48.408;10.004;2022-08-01T16:25:55;21.80;99.90
1179;DHT22;578;48.408;10.004;2022-08-01T16:28:22;21.80;99.90
1179;DHT22;578;48.408;10.004;2022-08-01T16:30:49;21.70;96.90
1179;DHT22;578;48.408;10.004;2022-08-01T16:33:16;21.80;97.60
1179;DHT22;578;48.408;10.004;2022-08-01T16:35:44;21.70;99.60
1179;DHT22;578;48.408;10.004;2022-08-01T16:38:11;21.90;96.40
1179;DHT22;578;48.408;10.004;2022-08-01T16:40:38;22.00;96.00
1179;DHT22;578;48.408;10.004;2022-08-01T16:43:05;22.10;98.50
1179;DHT22;578;48.408;10.004;2022-08-01T16:45:31;22.20;99.90
1179;DHT22;578;48.408;10.004;2022-08-01T16:47:58;22.00;99.90
1179;DHT22;578;48.408;10.004;2022-08-01T16:50:25;22.00;99.90
1179;DHT22;578;48.408;10.004;2022-08-01T16:52:53;21.90;99.90
1179;DHT22;578;48.408;10.004;2022-08-01T16:55:19;21.90;99.90
1179;DHT22;578;48.408;10.004;2022-08-01T16:57:47;22.00;99.90
1179;DHT22;578;48.408;10.004;2022-08-01T17:00:17;22.20;99.90
1179;DHT22;578;48.408;10.004;2022-08-01T17:02:45;22.30;99.90
1179;DHT22;578;48.408;10.004;2022-08-01T17:05:11;22.30;99.90
1179;DHT22;578;48.408;10.004;2022-08-01T17:07:38;22.30;99.90
1179;DHT22;578;48.408;10.004;2022-08-01T17:10:08;22.30;99.90
1179;DHT22;578;48.408;10.004;2022-08-01T17:12:36;22.30;99.60
1179;DHT22;578;48.408;10.004;2022-08-01T17:15:04;22.10;99.90
1179;DHT22;578;48.408;10.004;2022-08-01T17:17:31;22.10;95.50
1179;DHT22;578;48.408;10.004;2022-08-01T17:19:58;22.10;97.40
1179;DHT22;578;48.408;10.004;2022-08-01T17:22:25;22.20;92.70
1179;DHT22;578;48.408;10.004;2022-08-01T17:24:51;22.30;94.30
1179;DHT22;578;48.408;10.004;2022-08-01T17:27:19;22.20;95.30
1179;DHT22;578;48.408;10.004;2022-08-01T17:29:46;22.00;95.80
1179;DHT22;578;48.408;10.004;2022-08-01T17:32:22;21.90;97.50
1179;DHT22;578;48.408;10.004;2022-08-01T17:34:49;21.90;95.60
1179;DHT22;578;48.408;10.004;2022-08-01T17:37:16;21.70;96.60
1179;DHT22;578;48.408;10.004;2022-08-01T17:39:43;21.80;91.60
1179;DHT22;578;48.408;10.004;2022-08-01T17:42:10;21.70;91.40
1179;DHT22;578;48.408;10.004;2022-08-01T17:44:51;21.60;92.50
1179;DHT22;578;48.408;10.004;2022-08-01T17:47:18;21.40;94.00
1179;DHT22;578;48.408;10.004;2022-08-01T17:49:47;21.40;91.60
1179;DHT22;578;48.408;10.004;2022-08-01T17:52:14;21.30;93.30
1179;DHT22;578;48.408;10.004;2022-08-01T17:54:40;21.20;90.90
1179;DHT22;578;48.408;10.004;2022-08-01T17:57:07;21.10;90.40
1179;DHT22;578;48.408;10.004;2022-08-01T17:59:34;21.10;93.30
1179;DHT22;578;48.408;10.004;2022-08-01T18:02:02;21.00;92.60
1179;DHT22;578;48.408;10.004;2022-08-01T18:04:29;21.00;92.90